TAF LFSN
METAR LFSN
LFSN 270830Z AUTO 18005KT 9999 BKN016 BKN022 OVC028 03/02 Q0990=
LFSN 270730Z AUTO VRB02KT 9999 FEW015 SCT022 OVC034 02/02 Q0989=
LFSN 270700Z AUTO 19003KT 160V230 9999 BKN010 BKN034 OVC043 02/01 Q0989=
LFSN 270630Z AUTO 19003KT 160V230 9999 BKN011 BKN052 02/01 Q0989=
LFSN 270600Z AUTO 18003KT 9999 SCT012 BKN034 BKN150 02/01 Q0988=
WC LFSN
WS LFSN
WV LFSN